< Typhoon 195411 1954 Season Typhoon 195413 >
Typhoon 195412 (JUNE)
General InformationTrack Information on Google Maps || Disaster Info.ResourceGoogle EarthGE AnimationAtom FeedGeoJSON
Detalied Best Track (Time Zone = UTC)
Year Month Day Hour Lat. Long. Pressure (hPa) Wind (kt) Class Image Chart
1954 9 4 06 19.0 152.1 1004 0 2 -- Chart
1954 9 4 12 19.1 151.7 1004 0 2 -- Chart
1954 9 4 18 19.3 151.3 1004 0 2 -- Chart
1954 9 5 00 19.4 151.0 1000 0 2 -- Chart
1954 9 5 06 19.5 150.1 996 0 9 -- Chart
1954 9 5 12 19.8 149.7 996 0 9 -- Chart
1954 9 5 18 19.9 149.1 996 0 9 -- Chart
1954 9 6 00 20.0 148.1 970 0 9 -- Chart
1954 9 6 06 19.9 147.0 970 0 9 -- Chart
1954 9 6 12 19.5 146.1 970 0 9 -- Chart
1954 9 6 18 19.3 145.3 970 0 9 -- Chart
1954 9 7 00 19.3 144.4 970 0 9 -- Chart
1954 9 7 06 19.8 143.4 970 0 9 -- Chart
1954 9 7 12 20.0 142.9 960 0 9 -- Chart
1954 9 7 18 20.1 142.0 960 0 9 -- Chart
1954 9 8 00 20.3 141.1 910 0 9 -- Chart
1954 9 8 06 20.6 140.1 910 0 9 -- Chart
1954 9 8 12 20.7 139.5 910 0 9 -- Chart
1954 9 8 18 20.9 139.0 910 0 9 -- Chart
1954 9 9 00 21.1 138.3 925 0 9 -- Chart
1954 9 9 06 21.2 137.7 925 0 9 -- Chart
1954 9 9 12 21.6 137.3 925 0 9 -- Chart
1954 9 9 18 21.9 137.0 925 0 9 -- Chart
1954 9 10 00 22.5 136.5 925 0 9 -- Chart
1954 9 10 06 22.9 136.0 925 0 9 -- Chart
1954 9 10 12 23.1 135.5 925 0 9 -- Chart
1954 9 10 18 23.3 135.1 925 0 9 -- Chart
1954 9 11 00 24.0 134.6 925 0 9 -- Chart
1954 9 11 06 24.7 134.2 940 0 9 -- Chart
1954 9 11 12 25.1 133.7 940 0 9 -- Chart
1954 9 11 18 25.3 133.0 940 0 9 -- Chart
1954 9 12 00 26.2 132.3 940 0 9 -- Chart
1954 9 12 06 27.2 132.0 940 0 9 -- Chart
1954 9 12 12 27.7 131.2 945 0 9 -- Chart
1954 9 12 18 28.5 130.9 945 0 9 -- Chart
1954 9 13 00 29.5 130.9 945 0 9 -- Chart
1954 9 13 06 31.1 130.6 955 0 9 -- Chart
1954 9 13 12 33.1 131.0 964 0 9 -- Chart
1954 9 13 18 35.3 131.0 966 0 9 -- Chart
1954 9 14 00 37.3 131.3 970 0 9 -- Chart
1954 9 14 06 40.4 131.4 970 0 9 -- Chart
1954 9 14 12 43.0 131.5 970 0 9 -- Chart
1954 9 14 18 44.9 131.3 978 0 9 -- Chart
1954 9 15 00 46.0 131.0 985 0 9 -- Chart
1954 9 15 06 46.4 130.0 986 0 9 -- Chart
1954 9 15 12 47.0 129.0 986 0 9 -- Chart
1954 9 15 18 48.2 129.0 991 0 9 -- Chart
1954 9 16 00 49.1 130.4 992 0 6 -- Chart
1954 9 16 06 51.1 131.0 992 0 6 -- Chart
1954 9 16 12 52.0 129.1 992 0 6 -- Chart
Japan Meteorological Agency Best Track Data | Correction Date : 1990-10-17
< Typhoon 195411 1954 Season Typhoon 195413 >

Help